sensor_id;sensor_type;location;lat;lon;timestamp;P1;durP1;ratioP1;P2;durP2;ratioP2
5878;SDS011;2965;42.640;23.370;2023-02-11T05:01:36;28.90;;;11.80;;
5878;SDS011;2965;42.640;23.370;2023-02-11T05:04:01;24.07;;;12.93;;
5878;SDS011;2965;42.640;23.370;2023-02-11T05:06:27;58.17;;;11.43;;
5878;SDS011;2965;42.640;23.370;2023-02-11T05:08:52;19.20;;;11.73;;
5878;SDS011;2965;42.640;23.370;2023-02-11T05:11:19;19.40;;;10.50;;
5878;SDS011;2965;42.640;23.370;2023-02-11T05:13:47;20.57;;;11.50;;
5878;SDS011;2965;42.640;23.370;2023-02-11T05:16:13;26.93;;;12.83;;
5878;SDS011;2965;42.640;23.370;2023-02-11T05:18:40;23.43;;;12.20;;
5878;SDS011;2965;42.640;23.370;2023-02-11T05:21:07;21.53;;;12.27;;
5878;SDS011;2965;42.640;23.370;2023-02-11T05:23:35;24.93;;;11.40;;
5878;SDS011;2965;42.640;23.370;2023-02-11T05:26:01;19.47;;;11.00;;
5878;SDS011;2965;42.640;23.370;2023-02-11T05:28:26;20.47;;;10.83;;
5878;SDS011;2965;42.640;23.370;2023-02-11T05:30:52;22.83;;;9.60;;
5878;SDS011;2965;42.640;23.370;2023-02-11T05:33:18;18.30;;;10.43;;
5878;SDS011;2965;42.640;23.370;2023-02-11T05:35:43;24.97;;;11.43;;
5878;SDS011;2965;42.640;23.370;2023-02-11T05:38:08;23.40;;;12.03;;
5878;SDS011;2965;42.640;23.370;2023-02-11T05:40:34;18.10;;;11.10;;
5878;SDS011;2965;42.640;23.370;2023-02-11T05:42:59;24.00;;;12.27;;
5878;SDS011;2965;42.640;23.370;2023-02-11T05:45:25;21.93;;;10.80;;
5878;SDS011;2965;42.640;23.370;2023-02-11T05:47:50;20.30;;;11.27;;
5878;SDS011;2965;42.640;23.370;2023-02-11T05:50:15;23.37;;;9.80;;
5878;SDS011;2965;42.640;23.370;2023-02-11T05:52:41;21.87;;;10.60;;
5878;SDS011;2965;42.640;23.370;2023-02-11T05:55:06;23.47;;;10.87;;
5878;SDS011;2965;42.640;23.370;2023-02-11T05:57:32;26.77;;;10.60;;
5878;SDS011;2965;42.640;23.370;2023-02-11T05:59:58;27.13;;;12.40;;
5878;SDS011;2965;42.640;23.370;2023-02-11T06:02:23;26.37;;;11.30;;
5878;SDS011;2965;42.640;23.370;2023-02-11T06:04:48;24.87;;;13.07;;
5878;SDS011;2965;42.640;23.370;2023-02-11T06:07:14;31.03;;;12.07;;
5878;SDS011;2965;42.640;23.370;2023-02-11T06:09:39;20.60;;;11.20;;
5878;SDS011;2965;42.640;23.370;2023-02-11T06:12:04;27.03;;;11.87;;
5878;SDS011;2965;42.640;23.370;2023-02-11T06:14:33;21.17;;;12.00;;
5878;SDS011;2965;42.640;23.370;2023-02-11T06:16:58;22.30;;;10.70;;
5878;SDS011;2965;42.640;23.370;2023-02-11T06:19:24;17.10;;;9.70;;
5878;SDS011;2965;42.640;23.370;2023-02-11T06:21:49;25.57;;;11.50;;
5878;SDS011;2965;42.640;23.370;2023-02-11T06:24:14;27.43;;;11.10;;
5878;SDS011;2965;42.640;23.370;2023-02-11T06:26:40;24.37;;;10.87;;
5878;SDS011;2965;42.640;23.370;2023-02-11T06:29:05;26.77;;;10.50;;
5878;SDS011;2965;42.640;23.370;2023-02-11T06:31:31;29.00;;;13.63;;
5878;SDS011;2965;42.640;23.370;2023-02-11T06:33:56;33.37;;;14.20;;
5878;SDS011;2965;42.640;23.370;2023-02-11T06:36:23;23.77;;;10.50;;
5878;SDS011;2965;42.640;23.370;2023-02-11T06:38:49;27.37;;;11.20;;
5878;SDS011;2965;42.640;23.370;2023-02-11T06:41:15;41.03;;;12.70;;
5878;SDS011;2965;42.640;23.370;2023-02-11T06:43:44;24.50;;;12.47;;
5878;SDS011;2965;42.640;23.370;2023-02-11T06:46:09;30.43;;;13.80;;
5878;SDS011;2965;42.640;23.370;2023-02-11T06:48:35;29.27;;;14.10;;
5878;SDS011;2965;42.640;23.370;2023-02-11T06:51:04;27.23;;;12.87;;
5878;SDS011;2965;42.640;23.370;2023-02-11T06:53:33;28.50;;;14.50;;
5878;SDS011;2965;42.640;23.370;2023-02-11T06:56:01;39.73;;;14.60;;
5878;SDS011;2965;42.640;23.370;2023-02-11T06:58:31;27.00;;;13.30;;
5878;SDS011;2965;42.640;23.370;2023-02-11T07:00:56;28.60;;;13.50;;
5878;SDS011;2965;42.640;23.370;2023-02-11T07:03:22;31.47;;;13.43;;
5878;SDS011;2965;42.640;23.370;2023-02-11T07:05:48;37.87;;;15.60;;
5878;SDS011;2965;42.640;23.370;2023-02-11T07:08:13;35.97;;;16.60;;
5878;SDS011;2965;42.640;23.370;2023-02-11T07:10:39;36.73;;;16.20;;
5878;SDS011;2965;42.640;23.370;2023-02-11T07:13:04;36.00;;;18.47;;
5878;SDS011;2965;42.640;23.370;2023-02-11T07:15:29;31.90;;;16.80;;
5878;SDS011;2965;42.640;23.370;2023-02-11T07:17:55;36.17;;;17.67;;
5878;SDS011;2965;42.640;23.370;2023-02-11T07:20:20;42.53;;;19.37;;
5878;SDS011;2965;42.640;23.370;2023-02-11T07:22:46;49.07;;;20.03;;
5878;SDS011;2965;42.640;23.370;2023-02-11T07:25:11;43.07;;;18.23;;
5878;SDS011;2965;42.640;23.370;2023-02-11T07:27:36;40.20;;;18.87;;
5878;SDS011;2965;42.640;23.370;2023-02-11T07:30:02;48.23;;;19.40;;
5878;SDS011;2965;42.640;23.370;2023-02-11T07:32:28;35.47;;;17.30;;
5878;SDS011;2965;42.640;23.370;2023-02-11T07:34:53;43.93;;;19.33;;
5878;SDS011;2965;42.640;23.370;2023-02-11T07:37:19;41.20;;;18.07;;
5878;SDS011;2965;42.640;23.370;2023-02-11T07:39:44;44.53;;;18.80;;
5878;SDS011;2965;42.640;23.370;2023-02-11T07:42:10;32.90;;;17.63;;
5878;SDS011;2965;42.640;23.370;2023-02-11T07:44:35;53.60;;;19.63;;
5878;SDS011;2965;42.640;23.370;2023-02-11T07:47:01;52.97;;;18.90;;
5878;SDS011;2965;42.640;23.370;2023-02-11T07:49:27;34.10;;;18.20;;
5878;SDS011;2965;42.640;23.370;2023-02-11T07:51:52;32.53;;;17.47;;
5878;SDS011;2965;42.640;23.370;2023-02-11T07:54:17;36.80;;;17.33;;
5878;SDS011;2965;42.640;23.370;2023-02-11T07:56:43;39.40;;;16.47;;
5878;SDS011;2965;42.640;23.370;2023-02-11T07:59:09;29.57;;;14.30;;
5878;SDS011;2965;42.640;23.370;2023-02-11T08:01:35;34.07;;;15.33;;
5878;SDS011;2965;42.640;23.370;2023-02-11T08:04:01;25.07;;;12.47;;
5878;SDS011;2965;42.640;23.370;2023-02-11T08:06:28;33.00;;;14.70;;
5878;SDS011;2965;42.640;23.370;2023-02-11T08:08:55;18.30;;;11.07;;
5878;SDS011;2965;42.640;23.370;2023-02-11T08:11:22;27.03;;;13.20;;
5878;SDS011;2965;42.640;23.370;2023-02-11T08:13:49;30.20;;;15.13;;
5878;SDS011;2965;42.640;23.370;2023-02-11T08:16:20;27.10;;;14.87;;
5878;SDS011;2965;42.640;23.370;2023-02-11T08:18:54;28.33;;;11.10;;
5878;SDS011;2965;42.640;23.370;2023-02-11T08:21:21;18.13;;;9.03;;
5878;SDS011;2965;42.640;23.370;2023-02-11T08:23:48;22.67;;;11.90;;
5878;SDS011;2965;42.640;23.370;2023-02-11T08:26:20;27.47;;;12.50;;
5878;SDS011;2965;42.640;23.370;2023-02-11T08:28:48;27.23;;;9.40;;
5878;SDS011;2965;42.640;23.370;2023-02-11T08:31:15;25.60;;;13.20;;
5878;SDS011;2965;42.640;23.370;2023-02-11T08:33:42;22.60;;;11.30;;
5878;SDS011;2965;42.640;23.370;2023-02-11T08:36:09;37.73;;;15.50;;
5878;SDS011;2965;42.640;23.370;2023-02-11T08:38:39;25.10;;;14.03;;
5878;SDS011;2965;42.640;23.370;2023-02-11T08:41:05;28.20;;;13.00;;
5878;SDS011;2965;42.640;23.370;2023-02-11T08:43:31;28.67;;;13.47;;
5878;SDS011;2965;42.640;23.370;2023-02-11T08:45:57;23.97;;;13.50;;
5878;SDS011;2965;42.640;23.370;2023-02-11T08:48:23;38.70;;;14.40;;
5878;SDS011;2965;42.640;23.370;2023-02-11T08:50:48;30.83;;;12.27;;
5878;SDS011;2965;42.640;23.370;2023-02-11T08:53:13;25.47;;;13.90;;
5878;SDS011;2965;42.640;23.370;2023-02-11T08:55:39;36.60;;;16.13;;
5878;SDS011;2965;42.640;23.370;2023-02-11T08:58:04;31.37;;;14.33;;
5878;SDS011;2965;42.640;23.370;2023-02-11T09:00:30;32.27;;;15.13;;
5878;SDS011;2965;42.640;23.370;2023-02-11T09:02:55;33.57;;;15.93;;
5878;SDS011;2965;42.640;23.370;2023-02-11T09:05:21;35.53;;;16.00;;
5878;SDS011;2965;42.640;23.370;2023-02-11T09:07:47;32.23;;;15.40;;
5878;SDS011;2965;42.640;23.370;2023-02-11T09:10:12;37.27;;;15.83;;
5878;SDS011;2965;42.640;23.370;2023-02-11T09:12:38;30.70;;;13.27;;
5878;SDS011;2965;42.640;23.370;2023-02-11T09:15:03;31.37;;;14.97;;
5878;SDS011;2965;42.640;23.370;2023-02-11T09:17:29;28.23;;;16.00;;
5878;SDS011;2965;42.640;23.370;2023-02-11T09:19:54;35.27;;;16.00;;
5878;SDS011;2965;42.640;23.370;2023-02-11T09:22:19;40.90;;;16.53;;
5878;SDS011;2965;42.640;23.370;2023-02-11T09:24:46;27.23;;;13.80;;
5878;SDS011;2965;42.640;23.370;2023-02-11T09:27:11;36.00;;;16.77;;
5878;SDS011;2965;42.640;23.370;2023-02-11T09:29:37;36.43;;;17.77;;
5878;SDS011;2965;42.640;23.370;2023-02-11T09:32:02;27.43;;;13.63;;
5878;SDS011;2965;42.640;23.370;2023-02-11T09:34:28;33.13;;;15.20;;
5878;SDS011;2965;42.640;23.370;2023-02-11T09:36:53;36.70;;;17.97;;
5878;SDS011;2965;42.640;23.370;2023-02-11T09:39:18;31.80;;;14.77;;
5878;SDS011;2965;42.640;23.370;2023-02-11T09:44:32;28.27;;;11.87;;
5878;SDS011;2965;42.640;23.370;2023-02-11T09:47:17;28.30;;;15.07;;
5878;SDS011;2965;42.640;23.370;2023-02-11T09:49:57;24.83;;;12.33;;
5878;SDS011;2965;42.640;23.370;2023-02-11T09:55:17;29.47;;;14.03;;
5878;SDS011;2965;42.640;23.370;2023-02-11T09:57:46;27.90;;;15.17;;
5878;SDS011;2965;42.640;23.370;2023-02-11T10:00:17;29.40;;;14.70;;
5878;SDS011;2965;42.640;23.370;2023-02-11T10:10:58;31.60;;;14.30;;
5878;SDS011;2965;42.640;23.370;2023-02-11T10:14:20;24.43;;;13.27;;
5878;SDS011;2965;42.640;23.370;2023-02-11T10:19:41;34.80;;;14.50;;
5878;SDS011;2965;42.640;23.370;2023-02-11T10:22:19;25.93;;;14.43;;
5878;SDS011;2965;42.640;23.370;2023-02-11T10:25:17;25.33;;;13.23;;
5878;SDS011;2965;42.640;23.370;2023-02-11T10:27:44;35.93;;;17.23;;
5878;SDS011;2965;42.640;23.370;2023-02-11T10:30:20;29.83;;;15.23;;
5878;SDS011;2965;42.640;23.370;2023-02-11T10:32:48;26.50;;;14.20;;
5878;SDS011;2965;42.640;23.370;2023-02-11T10:35:19;33.00;;;13.80;;
5878;SDS011;2965;42.640;23.370;2023-02-11T10:37:47;26.23;;;11.73;;
5878;SDS011;2965;42.640;23.370;2023-02-11T10:40:14;36.67;;;11.87;;
5878;SDS011;2965;42.640;23.370;2023-02-11T10:42:43;20.97;;;12.70;;
5878;SDS011;2965;42.640;23.370;2023-02-11T10:45:24;22.37;;;12.43;;
5878;SDS011;2965;42.640;23.370;2023-02-11T10:47:50;29.70;;;14.60;;
5878;SDS011;2965;42.640;23.370;2023-02-11T10:50:25;28.63;;;13.50;;
5878;SDS011;2965;42.640;23.370;2023-02-11T10:52:54;26.50;;;12.20;;
5878;SDS011;2965;42.640;23.370;2023-02-11T10:55:36;24.13;;;11.60;;
5878;SDS011;2965;42.640;23.370;2023-02-11T10:58:02;20.40;;;10.57;;
5878;SDS011;2965;42.640;23.370;2023-02-11T11:03:06;34.00;;;11.70;;
5878;SDS011;2965;42.640;23.370;2023-02-11T11:05:45;19.83;;;11.30;;
5878;SDS011;2965;42.640;23.370;2023-02-11T11:08:13;20.90;;;12.30;;
5878;SDS011;2965;42.640;23.370;2023-02-11T11:10:43;24.60;;;11.80;;
5878;SDS011;2965;42.640;23.370;2023-02-11T11:13:28;23.53;;;12.43;;
5878;SDS011;2965;42.640;23.370;2023-02-11T11:16:08;21.63;;;12.27;;
5878;SDS011;2965;42.640;23.370;2023-02-11T11:18:36;24.57;;;12.90;;
5878;SDS011;2965;42.640;23.370;2023-02-11T11:23:49;28.60;;;13.93;;
5878;SDS011;2965;42.640;23.370;2023-02-11T11:26:27;21.40;;;12.77;;
5878;SDS011;2965;42.640;23.370;2023-02-11T11:29:08;24.43;;;13.27;;
5878;SDS011;2965;42.640;23.370;2023-02-11T11:32:23;24.53;;;11.80;;
5878;SDS011;2965;42.640;23.370;2023-02-11T11:34:43;33.30;;;18.20;;
5878;SDS011;2965;42.640;23.370;2023-02-11T11:37:25;25.60;;;13.50;;
5878;SDS011;2965;42.640;23.370;2023-02-11T11:39:55;21.90;;;12.67;;
5878;SDS011;2965;42.640;23.370;2023-02-11T11:42:27;18.87;;;12.20;;
5878;SDS011;2965;42.640;23.370;2023-02-11T11:44:56;19.17;;;9.53;;
5878;SDS011;2965;42.640;23.370;2023-02-11T11:47:44;23.30;;;11.70;;
5878;SDS011;2965;42.640;23.370;2023-02-11T11:50:26;24.67;;;13.70;;
5878;SDS011;2965;42.640;23.370;2023-02-11T11:52:59;19.77;;;11.07;;
5878;SDS011;2965;42.640;23.370;2023-02-11T11:58:19;19.47;;;11.03;;
5878;SDS011;2965;42.640;23.370;2023-02-11T12:03:25;24.23;;;12.47;;
5878;SDS011;2965;42.640;23.370;2023-02-11T12:06:19;22.90;;;11.40;;
5878;SDS011;2965;42.640;23.370;2023-02-11T12:17:02;25.40;;;12.20;;
5878;SDS011;2965;42.640;23.370;2023-02-11T12:22:30;17.60;;;10.60;;
5878;SDS011;2965;42.640;23.370;2023-02-11T18:17:05;17.77;;;10.33;;
5878;SDS011;2965;42.640;23.370;2023-02-11T18:19:31;15.83;;;8.53;;
5878;SDS011;2965;42.640;23.370;2023-02-11T18:21:59;14.27;;;10.00;;
5878;SDS011;2965;42.640;23.370;2023-02-11T18:24:25;15.10;;;10.40;;
5878;SDS011;2965;42.640;23.370;2023-02-11T18:26:50;23.23;;;11.90;;
5878;SDS011;2965;42.640;23.370;2023-02-11T18:29:16;16.77;;;11.13;;
5878;SDS011;2965;42.640;23.370;2023-02-11T18:31:41;23.13;;;11.80;;
5878;SDS011;2965;42.640;23.370;2023-02-11T18:34:07;27.77;;;14.43;;
5878;SDS011;2965;42.640;23.370;2023-02-11T18:36:34;22.47;;;14.23;;
5878;SDS011;2965;42.640;23.370;2023-02-11T18:39:00;31.87;;;13.60;;
5878;SDS011;2965;42.640;23.370;2023-02-11T18:41:26;25.93;;;13.23;;
5878;SDS011;2965;42.640;23.370;2023-02-11T18:43:52;26.70;;;14.00;;
5878;SDS011;2965;42.640;23.370;2023-02-11T18:46:17;26.60;;;14.83;;
5878;SDS011;2965;42.640;23.370;2023-02-11T18:48:46;29.83;;;15.37;;
5878;SDS011;2965;42.640;23.370;2023-02-11T18:51:12;24.80;;;13.73;;
5878;SDS011;2965;42.640;23.370;2023-02-11T18:53:40;30.20;;;14.90;;
5878;SDS011;2965;42.640;23.370;2023-02-11T18:56:07;24.97;;;13.63;;
5878;SDS011;2965;42.640;23.370;2023-02-11T18:58:34;26.13;;;13.20;;
5878;SDS011;2965;42.640;23.370;2023-02-11T19:01:07;26.93;;;13.03;;
5878;SDS011;2965;42.640;23.370;2023-02-11T19:03:34;37.80;;;13.30;;
5878;SDS011;2965;42.640;23.370;2023-02-11T19:05:59;24.97;;;12.53;;
5878;SDS011;2965;42.640;23.370;2023-02-11T19:08:25;41.10;;;18.17;;
5878;SDS011;2965;42.640;23.370;2023-02-11T19:10:50;32.17;;;17.17;;
5878;SDS011;2965;42.640;23.370;2023-02-11T19:13:16;37.20;;;17.57;;
5878;SDS011;2965;42.640;23.370;2023-02-11T19:15:42;40.10;;;18.40;;
5878;SDS011;2965;42.640;23.370;2023-02-11T19:18:09;40.50;;;19.80;;
5878;SDS011;2965;42.640;23.370;2023-02-11T19:20:37;31.53;;;17.93;;
5878;SDS011;2965;42.640;23.370;2023-02-11T19:23:03;35.93;;;17.20;;
5878;SDS011;2965;42.640;23.370;2023-02-11T19:25:28;26.17;;;13.57;;
5878;SDS011;2965;42.640;23.370;2023-02-11T19:27:54;6.43;;;5.90;;
5878;SDS011;2965;42.640;23.370;2023-02-11T19:30:19;2.90;;;2.80;;
5878;SDS011;2965;42.640;23.370;2023-02-11T19:32:44;8.13;;;6.03;;
5878;SDS011;2965;42.640;23.370;2023-02-11T19:35:10;6.40;;;4.70;;
5878;SDS011;2965;42.640;23.370;2023-02-11T19:37:35;10.40;;;4.80;;
5878;SDS011;2965;42.640;23.370;2023-02-11T19:40:01;5.57;;;5.07;;
5878;SDS011;2965;42.640;23.370;2023-02-11T19:42:26;9.10;;;4.67;;
5878;SDS011;2965;42.640;23.370;2023-02-11T19:44:51;10.13;;;6.77;;
5878;SDS011;2965;42.640;23.370;2023-02-11T19:47:17;21.93;;;6.40;;
5878;SDS011;2965;42.640;23.370;2023-02-11T19:49:43;12.50;;;6.70;;
5878;SDS011;2965;42.640;23.370;2023-02-11T19:52:08;10.80;;;6.10;;
5878;SDS011;2965;42.640;23.370;2023-02-11T19:54:34;10.33;;;7.23;;
5878;SDS011;2965;42.640;23.370;2023-02-11T19:56:59;16.63;;;9.00;;
5878;SDS011;2965;42.640;23.370;2023-02-11T19:59:25;13.23;;;7.93;;
5878;SDS011;2965;42.640;23.370;2023-02-11T20:01:50;6.77;;;6.10;;
5878;SDS011;2965;42.640;23.370;2023-02-11T20:04:17;15.97;;;8.03;;
5878;SDS011;2965;42.640;23.370;2023-02-11T20:06:43;8.60;;;6.93;;
5878;SDS011;2965;42.640;23.370;2023-02-11T20:09:10;10.33;;;7.40;;
5878;SDS011;2965;42.640;23.370;2023-02-11T20:11:38;9.97;;;6.33;;
5878;SDS011;2965;42.640;23.370;2023-02-11T20:14:04;8.57;;;5.50;;
5878;SDS011;2965;42.640;23.370;2023-02-11T20:16:31;3.37;;;3.10;;
5878;SDS011;2965;42.640;23.370;2023-02-11T20:18:57;5.00;;;4.70;;
5878;SDS011;2965;42.640;23.370;2023-02-11T20:21:24;11.50;;;5.40;;
5878;SDS011;2965;42.640;23.370;2023-02-11T20:23:51;12.67;;;5.00;;
5878;SDS011;2965;42.640;23.370;2023-02-11T20:26:21;8.53;;;5.57;;
5878;SDS011;2965;42.640;23.370;2023-02-11T20:28:51;4.60;;;4.13;;
5878;SDS011;2965;42.640;23.370;2023-02-11T20:31:18;6.50;;;5.77;;
5878;SDS011;2965;42.640;23.370;2023-02-11T20:33:44;7.80;;;6.50;;
5878;SDS011;2965;42.640;23.370;2023-02-11T20:36:14;6.50;;;5.47;;
5878;SDS011;2965;42.640;23.370;2023-02-11T20:38:50;10.27;;;6.97;;
5878;SDS011;2965;42.640;23.370;2023-02-11T20:43:44;5.00;;;4.60;;
5878;SDS011;2965;42.640;23.370;2023-02-11T20:46:12;9.50;;;5.90;;
5878;SDS011;2965;42.640;23.370;2023-02-11T20:48:39;24.00;;;12.73;;
5878;SDS011;2965;42.640;23.370;2023-02-11T20:51:06;7.80;;;6.97;;
5878;SDS011;2965;42.640;23.370;2023-02-11T20:53:36;9.83;;;6.30;;
5878;SDS011;2965;42.640;23.370;2023-02-11T20:56:03;6.37;;;5.77;;
5878;SDS011;2965;42.640;23.370;2023-02-11T20:58:30;10.63;;;6.30;;
5878;SDS011;2965;42.640;23.370;2023-02-11T21:00:56;8.70;;;5.73;;
5878;SDS011;2965;42.640;23.370;2023-02-11T21:03:30;7.60;;;6.07;;
5878;SDS011;2965;42.640;23.370;2023-02-11T21:05:58;8.40;;;5.60;;
5878;SDS011;2965;42.640;23.370;2023-02-11T21:08:23;10.80;;;7.10;;
5878;SDS011;2965;42.640;23.370;2023-02-11T21:10:49;8.33;;;7.30;;
5878;SDS011;2965;42.640;23.370;2023-02-11T21:13:14;17.03;;;10.77;;
5878;SDS011;2965;42.640;23.370;2023-02-11T21:15:40;29.20;;;14.30;;
5878;SDS011;2965;42.640;23.370;2023-02-11T21:18:05;17.43;;;10.23;;
5878;SDS011;2965;42.640;23.370;2023-02-11T21:20:30;15.80;;;10.00;;
5878;SDS011;2965;42.640;23.370;2023-02-11T21:22:56;12.50;;;9.80;;
5878;SDS011;2965;42.640;23.370;2023-02-11T21:25:21;10.07;;;7.70;;
5878;SDS011;2965;42.640;23.370;2023-02-11T21:27:46;13.77;;;7.80;;
5878;SDS011;2965;42.640;23.370;2023-02-11T21:30:12;14.03;;;8.20;;
5878;SDS011;2965;42.640;23.370;2023-02-11T21:32:38;26.50;;;7.80;;
5878;SDS011;2965;42.640;23.370;2023-02-11T21:35:03;12.27;;;8.13;;
5878;SDS011;2965;42.640;23.370;2023-02-11T21:37:29;15.00;;;7.80;;
5878;SDS011;2965;42.640;23.370;2023-02-11T21:39:54;16.87;;;8.67;;
5878;SDS011;2965;42.640;23.370;2023-02-11T21:42:19;21.90;;;11.70;;
5878;SDS011;2965;42.640;23.370;2023-02-11T21:44:45;15.37;;;10.10;;
5878;SDS011;2965;42.640;23.370;2023-02-11T21:47:10;21.17;;;12.80;;
5878;SDS011;2965;42.640;23.370;2023-02-11T21:49:36;23.23;;;13.27;;
5878;SDS011;2965;42.640;23.370;2023-02-11T21:52:01;26.53;;;11.03;;
5878;SDS011;2965;42.640;23.370;2023-02-11T21:54:26;27.73;;;11.47;;
5878;SDS011;2965;42.640;23.370;2023-02-11T21:56:55;22.03;;;11.73;;
5878;SDS011;2965;42.640;23.370;2023-02-11T21:59:22;26.50;;;13.20;;
